Time;durP1;ratioP1;P1;durP2;ratioP2;P2;SDS_P1;SDS_P2;PMS_P1;PMS_P2;Temp;Humidity;BMP_temperature;BMP_pressure;BME280_temperature;BME280_humidity;BME280_pressure;Samples;Min_cycle;Max_cycle;Signal;HPM_P1;HPM_P2
2023/03/18 00:01:15;;;;;;;15.73;9.40;;;11.10;99.90;;;;;;5088199;28;20056;-74
2023/03/18 00:03:41;;;;;;;16.70;8.75;;;11.10;99.90;;;;;;5090040;28;20040;-74
2023/03/18 00:06:10;;;;;;;14.63;9.20;;;11.10;99.90;;;;;;5089734;28;20040;-74
2023/03/18 00:08:36;;;;;;;15.18;8.98;;;11.10;99.90;;;;;;5089947;28;20114;-74
2023/03/18 00:11:04;;;;;;;14.55;8.45;;;11.10;99.90;;;;;;5089773;28;20044;-74
2023/03/18 00:13:32;;;;;;;14.80;9.30;;;11.00;99.90;;;;;;5090129;28;20061;-74
2023/03/18 00:15:58;;;;;;;14.45;8.85;;;11.00;99.90;;;;;;5089891;28;20517;-73
2023/03/18 00:18:24;;;;;;;16.33;9.00;;;11.10;99.90;;;;;;5089831;28;20173;-74
2023/03/18 00:20:50;;;;;;;15.45;9.77;;;11.10;99.90;;;;;;5089579;28;20515;-74
2023/03/18 00:23:16;;;;;;;13.98;8.85;;;11.10;99.90;;;;;;5090064;28;20182;-74
2023/03/18 00:25:45;;;;;;;14.50;9.27;;;10.90;99.90;;;;;;5088663;28;20060;-74
2023/03/18 00:28:10;;;;;;;17.05;10.20;;;11.10;99.90;;;;;;5089722;28;20071;-76
2023/03/18 00:30:41;;;;;;;13.32;8.40;;;11.10;99.90;;;;;;5089870;28;20083;-73
2023/03/18 00:33:08;;;;;;;17.35;9.32;;;10.90;99.90;;;;;;5089520;28;20079;-75
2023/03/18 00:35:36;;;;;;;12.80;8.63;;;11.20;99.90;;;;;;5089321;28;20212;-74
2023/03/18 00:38:06;;;;;;;12.95;8.93;;;11.00;99.90;;;;;;5089761;28;20051;-74
2023/03/18 00:43:16;;;;;;;18.75;9.52;;;10.90;99.90;;;;;;5089797;28;20044;-74
2023/03/18 00:45:42;;;;;;;14.35;9.27;;;10.80;99.90;;;;;;5089614;28;20051;-73
2023/03/18 00:48:08;;;;;;;14.70;9.70;;;10.90;99.90;;;;;;5087959;28;20044;-74
2023/03/18 00:50:35;;;;;;;18.10;10.10;;;10.90;99.90;;;;;;5088154;28;20055;-73
2023/03/18 00:53:01;;;;;;;20.08;10.57;;;10.80;99.90;;;;;;5089392;28;20533;-73
2023/03/18 00:55:27;;;;;;;16.20;10.95;;;10.80;99.90;;;;;;5089929;28;20044;-74
2023/03/18 00:57:53;;;;;;;19.63;10.60;;;10.80;99.90;;;;;;5088967;28;20052;-74
2023/03/18 01:00:20;;;;;;;20.67;10.60;;;10.80;99.90;;;;;;5093565;28;20748;-73
2023/03/18 01:02:48;;;;;;;16.80;10.65;;;10.80;99.90;;;;;;5093503;28;20048;-73
2023/03/18 01:05:14;;;;;;;17.77;11.23;;;10.80;99.90;;;;;;5092216;28;20048;-74
2023/03/18 01:07:40;;;;;;;16.33;11.88;;;10.80;99.90;;;;;;5093069;28;20113;-73
2023/03/18 01:10:07;;;;;;;24.08;12.93;;;11.00;99.90;;;;;;5093129;28;20798;-73
2023/03/18 01:12:32;;;;;;;23.80;12.82;;;10.70;99.90;;;;;;5093153;28;20059;-74
2023/03/18 01:14:58;;;;;;;20.42;13.77;;;10.70;99.90;;;;;;5108344;28;20476;-73
2023/03/18 01:17:25;;;;;;;25.40;14.20;;;10.60;99.90;;;;;;5093296;28;20044;-74
2023/03/18 01:19:51;;;;;;;26.02;14.85;;;10.60;99.90;;;;;;5093245;28;20044;-73
2023/03/18 01:22:18;;;;;;;23.38;15.95;;;10.50;99.90;;;;;;5092764;28;20090;-73
2023/03/18 01:24:45;;;;;;;25.90;16.33;;;10.50;99.90;;;;;;5092829;28;20532;-74
2023/03/18 01:27:11;;;;;;;29.58;16.85;;;10.50;99.90;;;;;;5092989;28;20137;-76
2023/03/18 01:29:36;;;;;;;26.95;18.02;;;10.50;99.90;;;;;;5092726;28;20079;-74
2023/03/18 01:32:02;;;;;;;31.58;19.15;;;10.40;99.90;;;;;;5092671;28;20043;-74
2023/03/18 01:34:29;;;;;;;29.92;18.50;;;10.30;99.90;;;;;;5092808;28;20459;-76
2023/03/18 01:36:56;;;;;;;31.65;19.92;;;10.60;99.90;;;;;;5092561;28;20141;-75
2023/03/18 01:39:22;;;;;;;25.75;18.52;;;10.50;99.90;;;;;;5092415;28;20056;-74
2023/03/18 01:41:49;;;;;;;31.80;20.02;;;10.50;99.90;;;;;;5092706;28;20036;-74
2023/03/18 01:44:20;;;;;;;30.35;20.75;;;10.30;99.90;;;;;;5092541;28;20123;-75
2023/03/18 01:46:48;;;;;;;31.95;21.45;;;10.60;99.90;;;;;;5092223;28;20043;-74
2023/03/18 01:49:24;;;;;;;29.42;20.13;;;10.30;99.90;;;;;;5092398;28;20119;-74
2023/03/18 01:51:58;;;;;;;31.38;20.73;;;10.30;99.90;;;;;;5091670;28;20126;-75
2023/03/18 01:54:26;;;;;;;32.55;21.60;;;10.60;99.90;;;;;;5092444;28;20055;-74
2023/03/18 01:56:53;;;;;;;29.67;21.05;;;10.20;99.90;;;;;;5092326;28;20050;-75
2023/03/18 01:59:22;;;;;;;31.88;21.45;;;10.10;99.90;;;;;;5092155;28;20118;-74
2023/03/18 02:01:51;;;;;;;36.13;23.40;;;10.10;99.90;;;;;;5091987;28;20055;-74
2023/03/18 02:04:20;;;;;;;29.52;22.27;;;10.10;99.90;;;;;;5092037;28;20084;-73
2023/03/18 02:06:46;;;;;;;35.22;23.55;;;10.10;99.90;;;;;;5091772;28;20058;-74
2023/03/18 02:09:12;;;;;;;34.10;23.42;;;10.40;99.90;;;;;;5091750;28;20066;-73
2023/03/18 02:11:42;;;;;;;35.03;24.00;;;10.00;99.90;;;;;;5090930;28;20501;-75
2023/03/18 02:14:10;;;;;;;32.45;23.95;;;10.00;99.90;;;;;;5091740;28;20581;-74
2023/03/18 02:16:49;;;;;;;32.97;23.48;;;10.00;99.90;;;;;;5091542;28;20089;-76
2023/03/18 02:19:38;;;;;;;35.40;23.65;;;10.20;99.90;;;;;;5091712;28;20514;-75
2023/03/18 02:22:24;;;;;;;33.38;24.50;;;9.90;99.90;;;;;;5028238;28;20064;-74
2023/03/18 02:25:14;;;;;;;31.10;23.48;;;9.90;99.90;;;;;;5029094;28;20072;-74
2023/03/18 02:27:44;;;;;;;34.08;23.75;;;9.90;99.90;;;;;;5028690;28;20513;-76
2023/03/18 02:30:15;;;;;;;37.13;24.42;;;10.20;99.90;;;;;;5028955;28;20096;-77
2023/03/18 02:32:42;;;;;;;35.10;24.60;;;9.80;99.90;;;;;;5028848;28;20128;-74
2023/03/18 02:35:09;;;;;;;31.65;24.48;;;10.00;99.90;;;;;;5028771;28;20081;-75
2023/03/18 02:37:35;;;;;;;35.20;24.80;;;9.70;99.90;;;;;;5028673;28;21259;-73
2023/03/18 02:40:18;;;;;;;33.67;26.17;;;9.70;99.90;;;;;;5028711;28;20069;-74
2023/03/18 02:42:46;;;;;;;32.03;23.10;;;9.70;99.90;;;;;;5028726;28;20079;-74
2023/03/18 02:45:22;;;;;;;34.35;25.48;;;9.70;99.90;;;;;;5028406;28;20041;-73
2023/03/18 02:47:49;;;;;;;33.75;22.50;;;9.70;99.90;;;;;;5028685;28;20116;-74
2023/03/18 02:50:16;;;;;;;41.75;23.90;;;9.90;99.90;;;;;;5012241;28;20637;-75
2023/03/18 02:52:42;;;;;;;34.67;24.10;;;9.60;99.90;;;;;;5028565;28;20061;-74
2023/03/18 02:55:08;;;;;;;37.65;24.20;;;9.70;99.90;;;;;;5028528;28;20497;-74
2023/03/18 02:57:33;;;;;;;40.72;24.73;;;9.60;99.90;;;;;;5028512;28;20546;-75
2023/03/18 02:59:59;;;;;;;37.92;24.27;;;9.50;99.90;;;;;;5065498;28;20060;-74
2023/03/18 03:02:25;;;;;;;32.60;23.58;;;9.50;99.90;;;;;;5089504;28;20070;-74
2023/03/18 03:04:51;;;;;;;35.80;23.30;;;9.40;99.90;;;;;;5090824;28;20044;-75
2023/03/18 03:07:17;;;;;;;31.20;23.73;;;9.40;99.90;;;;;;5091095;28;20101;-74
2023/03/18 03:09:43;;;;;;;34.05;24.05;;;9.60;99.90;;;;;;5090527;28;20438;-74
2023/03/18 03:12:08;;;;;;;31.08;23.02;;;9.40;99.90;;;;;;5091206;28;20453;-74
2023/03/18 03:14:34;;;;;;;38.47;24.98;;;9.30;99.90;;;;;;5091167;28;20059;-74
2023/03/18 03:17:00;;;;;;;35.25;24.38;;;9.30;99.90;;;;;;5089128;28;20056;-75
2023/03/18 03:19:25;;;;;;;35.05;23.30;;;9.30;99.90;;;;;;5090761;28;20407;-75
2023/03/18 03:21:51;;;;;;;37.97;24.80;;;9.20;99.90;;;;;;5089909;28;20406;-75
2023/03/18 03:24:17;;;;;;;35.78;23.80;;;9.20;99.90;;;;;;5089722;28;20044;-74
2023/03/18 03:26:42;;;;;;;36.55;25.10;;;9.20;99.90;;;;;;5090796;28;20059;-75
2023/03/18 03:29:08;;;;;;;34.03;24.55;;;9.30;99.90;;;;;;5104458;28;20044;-73
2023/03/18 03:31:34;;;;;;;43.58;24.70;;;9.60;99.90;;;;;;5090262;28;20077;-72
2023/03/18 03:34:00;;;;;;;35.03;24.38;;;9.20;99.90;;;;;;5089263;28;20101;-76
2023/03/18 03:36:26;;;;;;;38.13;24.42;;;9.20;99.90;;;;;;5090716;28;20130;-74
2023/03/18 03:38:51;;;;;;;36.42;25.70;;;9.20;99.90;;;;;;5089894;28;20039;-74
2023/03/18 03:41:17;;;;;;;33.33;23.55;;;9.20;99.90;;;;;;5090177;28;20156;-74
2023/03/18 03:43:43;;;;;;;37.35;24.38;;;9.20;99.90;;;;;;5090039;28;20040;-74
2023/03/18 03:46:09;;;;;;;37.38;25.58;;;9.20;99.90;;;;;;5090114;28;20047;-73
2023/03/18 03:48:36;;;;;;;32.60;25.00;;;9.10;99.90;;;;;;5090252;28;20101;-75
2023/03/18 03:51:02;;;;;;;34.08;24.45;;;9.20;99.90;;;;;;5089701;28;20048;-75
2023/03/18 03:53:28;;;;;;;33.30;25.25;;;9.20;99.90;;;;;;5090076;28;20047;-74
2023/03/18 03:55:55;;;;;;;35.17;23.70;;;9.10;99.90;;;;;;5089806;28;20502;-74
2023/03/18 03:58:21;;;;;;;37.58;24.77;;;9.10;99.90;;;;;;5090356;28;20044;-74
2023/03/18 04:00:47;;;;;;;38.67;25.30;;;9.10;99.90;;;;;;5089262;28;20539;-73
2023/03/18 04:03:12;;;;;;;37.10;24.13;;;9.10;99.90;;;;;;5089803;28;20070;-74
2023/03/18 04:05:38;;;;;;;36.55;24.23;;;9.20;99.90;;;;;;5089931;28;20092;-74
2023/03/18 04:08:04;;;;;;;42.22;24.85;;;9.10;99.90;;;;;;5090006;28;20032;-74
2023/03/18 04:10:29;;;;;;;33.33;23.83;;;9.10;99.90;;;;;;5089829;28;20048;-75
2023/03/18 04:12:55;;;;;;;36.25;23.95;;;9.10;99.90;;;;;;5089598;28;20051;-73
2023/03/18 04:15:21;;;;;;;36.22;23.85;;;9.40;99.90;;;;;;5089233;28;20040;-73
2023/03/18 04:17:50;;;;;;;36.38;24.00;;;9.40;99.90;;;;;;5089857;28;20496;-73
2023/03/18 04:20:17;;;;;;;44.95;23.95;;;9.10;99.90;;;;;;5089727;28;20086;-74
2023/03/18 04:22:43;;;;;;;37.70;23.48;;;9.10;99.90;;;;;;5087759;28;20101;-74
2023/03/18 04:25:11;;;;;;;33.58;23.33;;;9.10;99.90;;;;;;5069228;28;20040;-74
2023/03/18 04:27:38;;;;;;;34.22;22.17;;;9.40;99.90;;;;;;5069704;28;20052;-75
2023/03/18 04:30:07;;;;;;;33.83;22.92;;;9.10;99.90;;;;;;5080922;28;20048;-74
2023/03/18 04:32:33;;;;;;;32.45;23.17;;;9.10;99.90;;;;;;5091314;28;20075;-74
2023/03/18 04:34:59;;;;;;;32.60;22.55;;;9.10;99.90;;;;;;5093911;28;20082;-75
2023/03/18 04:37:25;;;;;;;36.90;24.20;;;9.10;99.90;;;;;;5092503;28;20047;-74
2023/03/18 04:39:51;;;;;;;35.58;23.65;;;9.10;99.90;;;;;;5092920;28;20131;-74
2023/03/18 04:42:16;;;;;;;33.45;23.58;;;9.40;99.90;;;;;;5093532;28;20123;-74
2023/03/18 04:44:43;;;;;;;32.17;22.38;;;9.10;99.90;;;;;;5093793;28;20052;-75
2023/03/18 04:47:09;;;;;;;38.30;23.52;;;9.10;99.90;;;;;;5092842;28;20042;-74
2023/03/18 04:49:34;;;;;;;35.50;23.92;;;9.10;99.90;;;;;;5093752;28;20059;-76
2023/03/18 04:52:01;;;;;;;34.28;22.63;;;9.40;99.90;;;;;;5093623;28;20403;-75
2023/03/18 04:54:27;;;;;;;33.55;23.58;;;9.10;99.90;;;;;;5093409;28;20544;-74
2023/03/18 04:56:53;;;;;;;38.38;23.60;;;9.00;99.90;;;;;;5093142;28;20044;-74
2023/03/18 04:59:19;;;;;;;40.30;24.58;;;9.00;99.90;;;;;;5093116;28;20047;-74
2023/03/18 05:01:44;;;;;;;34.83;22.77;;;9.10;99.90;;;;;;5093198;28;20113;-75
2023/03/18 05:04:10;;;;;;;37.85;22.75;;;9.00;99.90;;;;;;5093544;28;20885;-77
2023/03/18 05:06:36;;;;;;;38.08;24.52;;;9.00;99.90;;;;;;5093618;28;20089;-75
2023/03/18 05:09:04;;;;;;;38.00;23.42;;;9.00;99.90;;;;;;5093554;28;20394;-75
2023/03/18 05:11:30;;;;;;;34.25;23.70;;;9.00;99.90;;;;;;5092007;28;20047;-73
2023/03/18 05:13:56;;;;;;;39.58;23.80;;;9.00;99.90;;;;;;5093363;28;20032;-74
2023/03/18 05:16:22;;;;;;;31.90;23.05;;;9.20;99.90;;;;;;5093178;28;20497;-74
2023/03/18 05:18:48;;;;;;;37.65;24.70;;;9.00;99.90;;;;;;5093360;28;20162;-73
2023/03/18 05:21:14;;;;;;;35.17;24.35;;;9.10;99.90;;;;;;5093106;28;20130;-73
2023/03/18 05:23:40;;;;;;;40.25;23.83;;;9.10;99.90;;;;;;5091987;28;20043;-76
2023/03/18 05:26:06;;;;;;;40.22;24.42;;;9.10;99.90;;;;;;5092649;28;20040;-74
2023/03/18 05:28:32;;;;;;;36.55;23.83;;;9.10;99.90;;;;;;5093255;28;20070;-75
2023/03/18 05:30:58;;;;;;;39.80;24.80;;;9.10;99.90;;;;;;5093355;28;20052;-75
2023/03/18 05:33:24;;;;;;;41.42;23.15;;;9.20;99.90;;;;;;5092665;28;20046;-80
2023/03/18 05:35:50;;;;;;;46.50;26.77;;;9.10;99.90;;;;;;5092876;28;20078;-77
2023/03/18 05:38:17;;;;;;;48.53;25.85;;;9.10;99.90;;;;;;5092663;28;20040;-77
2023/03/18 05:40:43;;;;;;;45.30;27.33;;;9.10;99.90;;;;;;5092029;28;20059;-77
2023/03/18 05:43:09;;;;;;;52.38;27.40;;;9.10;99.90;;;;;;5092455;28;20040;-82
2023/03/18 05:45:35;;;;;;;48.22;27.80;;;9.10;99.90;;;;;;5091454;28;20406;-75
2023/03/18 05:48:00;;;;;;;51.00;28.55;;;9.10;99.90;;;;;;5092792;28;20116;-74
2023/03/18 05:50:31;;;;;;;50.00;28.33;;;9.50;99.90;;;;;;5092703;28;20458;-75
2023/03/18 05:52:57;;;;;;;47.92;29.27;;;9.10;99.90;;;;;;5092075;28;20147;-75
2023/03/18 05:55:23;;;;;;;47.60;27.63;;;9.10;99.90;;;;;;5092645;28;20046;-75
2023/03/18 05:57:49;;;;;;;45.05;27.58;;;9.30;99.90;;;;;;5092031;28;20045;-73
2023/03/18 06:00:17;;;;;;;50.65;29.08;;;9.10;99.90;;;;;;5092134;28;20063;-74
2023/03/18 06:02:43;;;;;;;50.35;28.52;;;9.10;99.90;;;;;;5092417;28;20131;-74
2023/03/18 06:05:09;;;;;;;38.20;25.00;;;9.50;99.90;;;;;;5092299;28;20426;-75
2023/03/18 06:07:35;;;;;;;45.65;26.83;;;9.10;99.90;;;;;;5090618;28;20071;-78
2023/03/18 06:10:01;;;;;;;43.65;25.85;;;9.10;99.90;;;;;;5092123;28;20399;-74
2023/03/18 06:12:27;;;;;;;42.85;26.77;;;9.30;99.90;;;;;;5091708;28;20040;-74
2023/03/18 06:14:53;;;;;;;40.30;26.70;;;9.20;99.90;;;;;;5092285;28;20093;-74
2023/03/18 06:17:20;;;;;;;43.38;26.30;;;9.20;99.90;;;;;;5091985;28;20441;-75
2023/03/18 06:19:47;;;;;;;43.55;26.80;;;9.20;99.90;;;;;;5091682;28;20048;-73
2023/03/18 06:22:14;;;;;;;41.95;27.10;;;9.20;99.90;;;;;;5091715;28;20750;-74
2023/03/18 06:24:40;;;;;;;40.97;27.75;;;9.20;99.90;;;;;;5090955;28;20048;-74
2023/03/18 06:27:06;;;;;;;38.70;25.65;;;9.20;99.90;;;;;;5090124;28;20055;-75
2023/03/18 06:29:32;;;;;;;40.85;26.88;;;9.20;99.90;;;;;;5091794;28;20059;-74
2023/03/18 06:31:58;;;;;;;43.60;27.77;;;9.20;99.90;;;;;;5091776;28;20544;-75
2023/03/18 06:34:24;;;;;;;41.63;27.20;;;9.30;99.90;;;;;;5091651;28;20105;-74
2023/03/18 06:36:51;;;;;;;40.67;26.38;;;9.30;99.90;;;;;;5091326;28;20075;-75
2023/03/18 06:39:17;;;;;;;38.47;25.13;;;9.40;99.90;;;;;;5091355;28;20048;-73
2023/03/18 06:41:43;;;;;;;38.67;25.70;;;9.30;99.90;;;;;;5091173;28;20783;-74
2023/03/18 06:44:10;;;;;;;38.88;24.85;;;9.50;99.90;;;;;;5091214;28;20044;-74
2023/03/18 06:46:36;;;;;;;37.35;24.92;;;9.30;99.90;;;;;;5091138;28;20118;-74
2023/03/18 06:49:02;;;;;;;38.92;25.15;;;9.30;99.90;;;;;;5091460;28;20059;-74
2023/03/18 06:51:27;;;;;;;37.95;25.77;;;9.40;99.90;;;;;;5091231;28;20036;-74
2023/03/18 06:53:53;;;;;;;40.63;25.52;;;9.30;99.90;;;;;;5090565;28;20043;-73
2023/03/18 06:56:19;;;;;;;34.90;24.48;;;9.30;99.90;;;;;;5091102;28;20052;-73
2023/03/18 06:58:45;;;;;;;33.95;23.08;;;9.40;99.90;;;;;;5090811;28;20043;-74
2023/03/18 07:01:11;;;;;;;41.53;25.92;;;9.40;99.90;;;;;;5089569;28;20483;-74
2023/03/18 07:03:37;;;;;;;43.33;26.02;;;9.40;99.90;;;;;;5090902;28;20105;-74
2023/03/18 07:06:03;;;;;;;36.15;24.55;;;9.50;99.90;;;;;;5091158;28;20044;-74
2023/03/18 07:08:29;;;;;;;37.78;24.77;;;9.50;99.90;;;;;;5091015;28;20035;-74
2023/03/18 07:10:55;;;;;;;39.08;25.60;;;9.60;99.90;;;;;;5090876;28;20055;-74
2023/03/18 07:13:20;;;;;;;38.03;26.17;;;9.50;99.90;;;;;;5090434;28;20040;-74
2023/03/18 07:15:46;;;;;;;32.00;23.52;;;9.60;99.90;;;;;;5090502;28;20040;-73
2023/03/18 07:18:13;;;;;;;42.17;27.40;;;9.60;99.90;;;;;;5090473;28;20044;-75
2023/03/18 07:20:39;;;;;;;35.03;24.88;;;9.60;99.90;;;;;;5090633;28;20059;-74
2023/03/18 07:23:05;;;;;;;37.47;24.08;;;9.70;99.90;;;;;;5088921;28;20299;-80
2023/03/18 07:25:31;;;;;;;38.50;24.58;;;9.70;99.90;;;;;;5090946;28;20043;-74
2023/03/18 07:27:59;;;;;;;40.75;24.80;;;9.80;99.90;;;;;;5090449;28;20125;-74
2023/03/18 07:30:26;;;;;;;41.95;26.73;;;9.80;99.90;;;;;;5090836;28;20160;-75
2023/03/18 07:32:52;;;;;;;44.08;25.30;;;10.20;99.90;;;;;;5090754;28;20109;-75
2023/03/18 07:35:18;;;;;;;40.33;25.02;;;9.90;99.90;;;;;;5090590;28;20074;-75
2023/03/18 07:37:44;;;;;;;38.40;25.23;;;10.00;99.90;;;;;;5090605;28;20051;-74
2023/03/18 07:40:10;;;;;;;40.85;26.23;;;10.10;99.90;;;;;;5090420;28;20391;-74
2023/03/18 07:42:37;;;;;;;36.42;26.58;;;10.10;99.90;;;;;;5090362;28;20044;-74
2023/03/18 07:45:04;;;;;;;43.65;26.67;;;10.10;99.90;;;;;;5090221;28;20040;-75
2023/03/18 07:47:29;;;;;;;41.00;26.25;;;10.20;99.90;;;;;;5090275;28;20052;-73
2023/03/18 07:49:56;;;;;;;37.88;26.38;;;10.20;99.90;;;;;;5090031;28;20048;-75
2023/03/18 07:52:22;;;;;;;35.70;25.55;;;10.30;99.90;;;;;;5090236;28;20437;-74
2023/03/18 07:54:48;;;;;;;43.08;27.50;;;10.30;99.90;;;;;;5089906;28;20078;-75
2023/03/18 07:57:13;;;;;;;36.55;26.95;;;10.40;99.90;;;;;;5088803;28;20438;-74
2023/03/18 07:59:39;;;;;;;35.92;25.02;;;10.40;99.90;;;;;;5089781;28;20371;-74
2023/03/18 08:02:06;;;;;;;37.90;26.83;;;10.40;99.90;;;;;;5089532;28;20601;-75
2023/03/18 08:04:34;;;;;;;35.40;26.10;;;10.60;99.90;;;;;;5090109;28;20063;-78
2023/03/18 08:07:00;;;;;;;39.88;26.35;;;10.60;99.90;;;;;;5089997;28;20048;-75
2023/03/18 08:09:26;;;;;;;37.20;25.38;;;10.50;99.90;;;;;;5089238;28;20074;-73
2023/03/18 08:11:52;;;;;;;33.22;24.55;;;10.50;99.90;;;;;;5090023;28;20169;-74
2023/03/18 08:14:19;;;;;;;35.83;25.58;;;10.60;99.90;;;;;;5089351;28;20051;-75
2023/03/18 08:16:44;;;;;;;34.95;25.00;;;10.60;99.90;;;;;;5090074;28;20092;-77
2023/03/18 08:19:10;;;;;;;37.85;25.02;;;10.90;99.90;;;;;;5089988;28;20052;-74
2023/03/18 08:21:37;;;;;;;38.22;26.52;;;10.60;99.90;;;;;;5087750;28;20090;-73
2023/03/18 08:24:03;;;;;;;40.20;26.70;;;10.80;99.90;;;;;;5089916;28;20437;-75
2023/03/18 08:26:28;;;;;;;35.40;25.52;;;10.60;99.90;;;;;;5088856;28;20082;-75
2023/03/18 08:28:54;;;;;;;38.00;26.75;;;10.90;99.90;;;;;;5088390;28;20550;-78
2023/03/18 08:31:20;;;;;;;39.80;26.70;;;10.90;99.90;;;;;;5089787;28;20410;-80
2023/03/18 08:33:46;;;;;;;36.72;26.00;;;10.70;99.90;;;;;;5088612;28;20055;-77
2023/03/18 08:36:12;;;;;;;40.53;25.65;;;11.00;99.90;;;;;;5089792;28;20126;-78
2023/03/18 08:38:38;;;;;;;36.47;24.83;;;10.80;99.90;;;;;;5088113;28;20052;-74
2023/03/18 08:41:05;;;;;;;35.45;25.75;;;10.80;99.90;;;;;;5089770;28;20050;-74
2023/03/18 08:43:31;;;;;;;36.10;25.17;;;11.00;99.90;;;;;;5088438;28;20048;-74
2023/03/18 08:45:57;;;;;;;35.75;24.38;;;10.70;99.90;;;;;;5088966;28;20048;-74
2023/03/18 08:48:24;;;;;;;32.97;25.48;;;10.70;99.90;;;;;;5089810;28;20125;-74
2023/03/18 08:50:51;;;;;;;35.72;24.75;;;10.70;99.90;;;;;;5089802;28;20052;-75
2023/03/18 08:53:18;;;;;;;38.05;25.33;;;11.00;99.90;;;;;;5089233;28;20487;-74
2023/03/18 08:55:45;;;;;;;35.85;24.42;;;10.70;99.90;;;;;;5088221;28;20091;-73
2023/03/18 08:58:10;;;;;;;33.72;24.98;;;11.10;99.90;;;;;;5089457;28;20044;-77
2023/03/18 09:00:38;;;;;;;35.70;24.83;;;10.80;99.90;;;;;;5088797;28;20105;-83
2023/03/18 09:03:05;;;;;;;36.65;25.13;;;10.90;99.90;;;;;;5089405;28;20060;-75
2023/03/18 09:05:32;;;;;;;33.85;24.70;;;10.90;99.90;;;;;;5089422;28;20456;-76
2023/03/18 09:07:59;;;;;;;35.20;26.95;;;10.90;99.90;;;;;;5089422;28;20075;-77
2023/03/18 09:10:25;;;;;;;37.25;25.92;;;11.10;99.90;;;;;;5089304;28;20506;-77
2023/03/18 09:12:51;;;;;;;37.45;25.65;;;11.10;99.90;;;;;;5089519;28;20071;-75
2023/03/18 09:15:21;;;;;;;36.92;26.10;;;11.00;99.90;;;;;;5088584;28;20068;-81
2023/03/18 09:17:47;;;;;;;42.70;27.50;;;11.10;99.90;;;;;;5089304;28;20048;-75
2023/03/18 09:20:14;;;;;;;39.20;26.73;;;11.20;99.90;;;;;;5091811;28;20047;-74
2023/03/18 09:22:42;;;;;;;37.15;27.08;;;11.20;99.90;;;;;;5093024;28;20044;-81
2023/03/18 09:25:09;;;;;;;40.20;27.73;;;11.30;99.90;;;;;;5092669;28;20429;-76
2023/03/18 09:27:35;;;;;;;37.38;26.63;;;11.40;99.90;;;;;;5092864;28;20048;-77
2023/03/18 09:30:03;;;;;;;43.05;28.42;;;11.70;99.90;;;;;;5092902;28;20172;-78
2023/03/18 09:32:29;;;;;;;39.85;28.60;;;11.60;99.90;;;;;;5092881;28;20062;-75
2023/03/18 09:34:55;;;;;;;39.05;27.63;;;11.70;99.90;;;;;;5093210;28;20375;-74
2023/03/18 09:37:21;;;;;;;34.78;27.58;;;11.90;99.90;;;;;;5092054;28;20048;-80
2023/03/18 09:39:47;;;;;;;43.30;29.30;;;12.20;99.90;;;;;;5092715;28;20066;-79
2023/03/18 09:42:21;;;;;;;36.80;27.65;;;12.60;99.90;;;;;;5092372;28;20051;-78
2023/03/18 09:44:53;;;;;;;35.85;26.55;;;12.60;99.90;;;;;;5077157;28;20105;-74
2023/03/18 09:47:53;;;;;;;36.75;25.48;;;12.60;99.90;;;;;;5092534;28;20105;-79
2023/03/18 09:50:31;;;;;;;39.00;28.52;;;12.90;99.90;;;;;;5092537;28;20044;-76
2023/03/18 09:53:18;;;;;;;37.13;26.75;;;13.00;99.90;;;;;;5089615;28;20188;-75
2023/03/18 09:55:49;;;;;;;35.47;26.30;;;13.10;99.90;;;;;;5091107;28;20402;-76
2023/03/18 09:58:29;;;;;;;35.15;27.02;;;13.20;99.90;;;;;;5092353;28;20525;-75
2023/03/18 10:01:00;;;;;;;36.08;25.92;;;13.40;99.90;;;;;;5092152;28;20089;-81
2023/03/18 10:03:36;;;;;;;34.67;25.38;;;13.60;99.90;;;;;;5091970;28;20052;-79
2023/03/18 10:06:15;;;;;;;33.08;26.10;;;13.70;99.90;;;;;;5090934;28;20138;-75
2023/03/18 10:08:49;;;;;;;35.13;24.48;;;13.90;99.90;;;;;;5092350;28;20483;-78
2023/03/18 10:11:30;;;;;;;32.53;24.77;;;14.00;99.90;;;;;;5092253;28;20075;-77
2023/03/18 10:14:24;;;;;;;35.58;24.25;;;14.10;99.90;;;;;;5090984;28;20056;-76
2023/03/18 10:17:14;;;;;;;32.53;24.58;;;14.20;99.90;;;;;;5091882;28;20459;-77
2023/03/18 10:19:50;;;;;;;32.85;24.92;;;14.10;99.90;;;;;;5091941;28;20379;-82
2023/03/18 10:22:25;;;;;;;31.63;23.77;;;14.30;99.90;;;;;;5091826;28;20048;-76
2023/03/18 10:24:58;;;;;;;32.25;24.38;;;14.40;99.90;;;;;;5107672;28;20658;-80
2023/03/18 10:27:48;;;;;;;31.27;23.35;;;14.30;99.90;;;;;;5092188;28;20050;-81
2023/03/18 10:30:30;;;;;;;32.85;23.48;;;14.30;99.90;;;;;;5091468;28;20447;-82
2023/03/18 10:33:26;;;;;;;32.72;23.63;;;14.40;99.90;;;;;;5091873;28;20048;-78
2023/03/18 10:36:17;;;;;;;31.23;23.73;;;14.40;99.90;;;;;;5079511;28;20449;-82
2023/03/18 10:38:48;;;;;;;31.25;22.88;;;14.60;99.90;;;;;;5091510;28;20050;-84
2023/03/18 10:41:31;;;;;;;29.75;22.42;;;14.90;99.90;;;;;;5090996;28;20104;-82
2023/03/18 10:44:00;;;;;;;28.80;22.77;;;14.90;99.90;;;;;;5091084;28;20040;-75
2023/03/18 10:46:26;;;;;;;29.15;21.33;;;14.90;99.90;;;;;;5091389;28;20502;-73
2023/03/18 10:49:05;;;;;;;27.25;21.30;;;14.80;99.90;;;;;;5091253;28;20066;-76
2023/03/18 10:51:46;;;;;;;26.08;20.15;;;14.90;99.90;;;;;;5091267;28;20502;-78
2023/03/18 10:54:25;;;;;;;23.17;19.15;;;14.80;99.90;;;;;;5091376;28;20039;-75
2023/03/18 10:56:52;;;;;;;28.65;20.63;;;14.70;99.90;;;;;;5090967;28;20044;-80
2023/03/18 10:59:21;;;;;;;28.15;19.70;;;14.70;99.90;;;;;;5091066;28;20712;-77
2023/03/18 11:01:51;;;;;;;22.77;18.30;;;14.80;99.90;;;;;;5090871;28;20063;-75
2023/03/18 11:04:22;;;;;;;25.00;16.88;;;15.10;99.90;;;;;;5090698;28;20062;-73
2023/03/18 11:07:01;;;;;;;17.85;13.93;;;15.20;99.90;;;;;;5090980;28;20051;-74
2023/03/18 11:09:38;;;;;;;24.17;15.90;;;15.20;99.90;;;;;;5091111;28;20115;-75
2023/03/18 11:12:12;;;;;;;21.13;15.52;;;15.10;99.90;;;;;;5090726;28;20474;-73
2023/03/18 11:14:39;;;;;;;18.60;13.98;;;15.00;99.90;;;;;;5090850;28;20051;-74
2023/03/18 11:17:26;;;;;;;20.52;14.07;;;15.00;99.90;;;;;;5090651;28;20051;-76
2023/03/18 11:20:06;;;;;;;17.48;12.77;;;15.00;99.90;;;;;;5090362;28;20048;-74
2023/03/18 11:22:33;;;;;;;18.88;13.82;;;14.90;99.90;;;;;;5090783;28;20087;-73
2023/03/18 11:25:26;;;;;;;22.50;14.10;;;15.00;99.90;;;;;;5090353;28;20418;-74
2023/03/18 11:27:57;;;;;;;21.83;15.65;;;14.90;99.90;;;;;;5087700;28;20495;-75
2023/03/18 11:30:28;;;;;;;20.58;13.90;;;14.90;99.90;;;;;;5090790;28;20040;-75
2023/03/18 11:33:05;;;;;;;21.20;14.95;;;14.80;99.90;;;;;;5089152;28;20124;-74
2023/03/18 11:35:49;;;;;;;19.10;13.15;;;14.80;99.90;;;;;;5090572;28;20390;-74
2023/03/18 11:38:27;;;;;;;14.77;10.93;;;14.80;99.90;;;;;;5090680;28;20086;-75
2023/03/18 11:41:07;;;;;;;18.27;13.25;;;15.00;99.90;;;;;;5090652;28;20083;-73
2023/03/18 11:43:35;;;;;;;22.80;12.55;;;15.00;99.90;;;;;;5090125;28;20044;-74
2023/03/18 11:46:05;;;;;;;19.88;12.68;;;15.00;99.90;;;;;;5090735;28;20445;-73
2023/03/18 11:48:39;;;;;;;15.60;11.40;;;15.10;99.90;;;;;;5089627;28;20889;-74
2023/03/18 11:51:40;;;;;;;21.67;11.77;;;15.30;99.90;;;;;;5090630;28;20097;-74
2023/03/18 11:54:29;;;;;;;13.63;9.20;;;15.50;99.90;;;;;;5086274;28;20044;-73
2023/03/18 11:57:09;;;;;;;16.95;10.57;;;15.40;99.90;;;;;;5089760;28;20056;-76
2023/03/18 11:59:43;;;;;;;18.55;12.07;;;15.50;99.90;;;;;;5090217;28;20514;-76
2023/03/18 12:02:10;;;;;;;15.90;11.35;;;15.60;99.90;;;;;;5090018;28;20129;-82
2023/03/18 12:05:15;;;;;;;15.25;10.85;;;15.50;99.90;;;;;;5089954;28;20506;-76
2023/03/18 12:08:09;;;;;;;17.58;11.80;;;15.50;99.90;;;;;;5089989;28;20040;-78
2023/03/18 12:11:05;;;;;;;16.40;12.07;;;15.50;99.90;;;;;;5079519;28;20145;-80
2023/03/18 12:13:56;;;;;;;19.42;12.85;;;15.50;99.90;;;;;;5089935;28;20044;-73
2023/03/18 12:16:22;;;;;;;20.20;12.57;;;15.70;99.90;;;;;;5088588;28;20058;-75
2023/03/18 12:19:09;;;;;;;18.23;11.35;;;15.90;99.90;;;;;;5089960;28;20397;-74
2023/03/18 12:21:49;;;;;;;16.02;10.65;;;15.90;99.90;;;;;;5089957;28;20073;-74
2023/03/18 12:24:51;;;;;;;17.80;10.98;;;15.80;99.90;;;;;;5089741;28;20036;-74
2023/03/18 12:27:41;;;;;;;13.52;9.98;;;15.80;99.90;;;;;;5090045;28;20055;-74
2023/03/18 12:30:42;;;;;;;16.55;9.73;;;15.80;99.90;;;;;;5090212;28;20051;-74
2023/03/18 12:33:46;;;;;;;15.82;9.88;;;15.70;99.90;;;;;;5090310;28;20048;-74
2023/03/18 12:36:30;;;;;;;12.38;9.38;;;15.70;99.90;;;;;;5089534;28;20518;-75
2023/03/18 12:39:06;;;;;;;12.80;9.65;;;16.10;99.90;;;;;;5088644;28;20075;-75
2023/03/18 12:41:50;;;;;;;12.63;9.05;;;16.30;99.90;;;;;;5090142;28;20054;-75
2023/03/18 12:44:42;;;;;;;13.52;9.40;;;16.50;99.90;;;;;;5089889;28;20155;-75
2023/03/18 12:47:27;;;;;;;12.98;8.63;;;16.60;99.90;;;;;;5088013;28;20406;-79